sensor_id;sensor_type;location;lat;lon;timestamp;temperature;humidity
26503;DHT22;14177;51.520;6.764;2023-09-19T00:01:41;17.00;99.90
26503;DHT22;14177;51.520;6.764;2023-09-19T00:04:08;17.00;99.90
26503;DHT22;14177;51.520;6.764;2023-09-19T00:06:37;17.00;99.90
26503;DHT22;14177;51.520;6.764;2023-09-19T00:09:04;17.00;99.90
26503;DHT22;14177;51.520;6.764;2023-09-19T00:11:32;16.90;99.90
26503;DHT22;14177;51.520;6.764;2023-09-19T00:13:59;16.90;99.90
26503;DHT22;14177;51.520;6.764;2023-09-19T00:16:26;16.90;99.90
26503;DHT22;14177;51.520;6.764;2023-09-19T00:18:53;16.90;99.90
26503;DHT22;14177;51.520;6.764;2023-09-19T00:21:20;16.90;99.90
26503;DHT22;14177;51.520;6.764;2023-09-19T00:23:48;16.90;99.90
26503;DHT22;14177;51.520;6.764;2023-09-19T00:26:15;16.80;99.90
26503;DHT22;14177;51.520;6.764;2023-09-19T00:28:47;16.80;99.90
26503;DHT22;14177;51.520;6.764;2023-09-19T00:31:14;16.80;99.90
26503;DHT22;14177;51.520;6.764;2023-09-19T00:33:41;16.80;99.90
26503;DHT22;14177;51.520;6.764;2023-09-19T00:36:09;16.70;99.90
26503;DHT22;14177;51.520;6.764;2023-09-19T00:38:36;16.70;99.90
26503;DHT22;14177;51.520;6.764;2023-09-19T00:41:03;16.70;99.90
26503;DHT22;14177;51.520;6.764;2023-09-19T00:43:31;16.70;99.90
26503;DHT22;14177;51.520;6.764;2023-09-19T00:46:01;16.70;99.90
26503;DHT22;14177;51.520;6.764;2023-09-19T00:48:31;16.60;99.90
26503;DHT22;14177;51.520;6.764;2023-09-19T00:51:02;16.60;99.90
26503;DHT22;14177;51.520;6.764;2023-09-19T00:53:32;16.50;99.90
26503;DHT22;14177;51.520;6.764;2023-09-19T00:56:04;16.50;99.90
26503;DHT22;14177;51.520;6.764;2023-09-19T00:58:34;16.50;99.90
26503;DHT22;14177;51.520;6.764;2023-09-19T01:01:04;16.50;99.90
26503;DHT22;14177;51.520;6.764;2023-09-19T01:03:36;16.40;99.90
26503;DHT22;14177;51.520;6.764;2023-09-19T01:06:04;16.40;99.90
26503;DHT22;14177;51.520;6.764;2023-09-19T01:08:31;16.30;99.90
26503;DHT22;14177;51.520;6.764;2023-09-19T01:14:03;16.30;99.90
26503;DHT22;14177;51.520;6.764;2023-09-19T01:16:48;16.30;99.90
26503;DHT22;14177;51.520;6.764;2023-09-19T01:22:20;16.30;99.90
26503;DHT22;14177;51.520;6.764;2023-09-19T01:30:52;16.30;99.90
26503;DHT22;14177;51.520;6.764;2023-09-19T01:33:26;16.20;99.90
26503;DHT22;14177;51.520;6.764;2023-09-19T01:35:53;16.20;99.90
26503;DHT22;14177;51.520;6.764;2023-09-19T01:38:22;16.20;99.90
26503;DHT22;14177;51.520;6.764;2023-09-19T01:41:03;16.10;99.90
26503;DHT22;14177;51.520;6.764;2023-09-19T01:43:40;16.10;99.90
26503;DHT22;14177;51.520;6.764;2023-09-19T01:46:13;16.10;99.90
26503;DHT22;14177;51.520;6.764;2023-09-19T01:51:51;16.00;99.90
26503;DHT22;14177;51.520;6.764;2023-09-19T01:54:50;16.00;99.90
26503;DHT22;14177;51.520;6.764;2023-09-19T01:57:29;16.00;99.90
26503;DHT22;14177;51.520;6.764;2023-09-19T02:00:08;16.00;99.90
26503;DHT22;14177;51.520;6.764;2023-09-19T02:02:47;16.00;99.90
26503;DHT22;14177;51.520;6.764;2023-09-19T02:05:22;16.00;99.90
26503;DHT22;14177;51.520;6.764;2023-09-19T02:07:54;15.90;99.90
26503;DHT22;14177;51.520;6.764;2023-09-19T02:10:22;15.90;99.90
26503;DHT22;14177;51.520;6.764;2023-09-19T02:12:50;15.90;99.90
26503;DHT22;14177;51.520;6.764;2023-09-19T02:15:18;15.80;99.90
26503;DHT22;14177;51.520;6.764;2023-09-19T02:17:45;15.80;99.90
26503;DHT22;14177;51.520;6.764;2023-09-19T02:20:13;15.70;99.90
26503;DHT22;14177;51.520;6.764;2023-09-19T02:22:43;15.70;99.90
26503;DHT22;14177;51.520;6.764;2023-09-19T02:25:11;15.70;99.90
26503;DHT22;14177;51.520;6.764;2023-09-19T02:27:40;15.70;99.90
26503;DHT22;14177;51.520;6.764;2023-09-19T02:30:07;15.60;99.90
26503;DHT22;14177;51.520;6.764;2023-09-19T02:32:35;15.60;99.90
26503;DHT22;14177;51.520;6.764;2023-09-19T02:35:06;15.60;99.90
26503;DHT22;14177;51.520;6.764;2023-09-19T02:37:33;15.70;99.90
26503;DHT22;14177;51.520;6.764;2023-09-19T02:40:01;15.60;99.90
26503;DHT22;14177;51.520;6.764;2023-09-19T02:42:29;15.70;99.90
26503;DHT22;14177;51.520;6.764;2023-09-19T02:44:57;15.60;99.90
26503;DHT22;14177;51.520;6.764;2023-09-19T02:47:24;15.60;99.90
26503;DHT22;14177;51.520;6.764;2023-09-19T02:49:51;15.60;99.90
26503;DHT22;14177;51.520;6.764;2023-09-19T02:52:18;15.60;99.90
26503;DHT22;14177;51.520;6.764;2023-09-19T02:54:46;15.60;99.90
26503;DHT22;14177;51.520;6.764;2023-09-19T02:57:13;15.60;99.90
26503;DHT22;14177;51.520;6.764;2023-09-19T02:59:42;15.60;99.90
26503;DHT22;14177;51.520;6.764;2023-09-19T03:02:11;15.70;99.90
26503;DHT22;14177;51.520;6.764;2023-09-19T03:04:38;15.60;99.90
26503;DHT22;14177;51.520;6.764;2023-09-19T03:07:05;15.70;99.90
26503;DHT22;14177;51.520;6.764;2023-09-19T03:09:32;15.70;99.90
26503;DHT22;14177;51.520;6.764;2023-09-19T03:11:59;15.70;99.90
26503;DHT22;14177;51.520;6.764;2023-09-19T03:14:27;15.60;99.90
26503;DHT22;14177;51.520;6.764;2023-09-19T03:16:58;15.70;99.90
26503;DHT22;14177;51.520;6.764;2023-09-19T03:19:27;15.70;99.90
26503;DHT22;14177;51.520;6.764;2023-09-19T03:21:54;15.70;99.90
26503;DHT22;14177;51.520;6.764;2023-09-19T03:24:24;15.60;99.90
26503;DHT22;14177;51.520;6.764;2023-09-19T03:26:51;15.60;99.90
26503;DHT22;14177;51.520;6.764;2023-09-19T03:29:18;15.60;99.90
26503;DHT22;14177;51.520;6.764;2023-09-19T03:31:46;15.60;99.90
26503;DHT22;14177;51.520;6.764;2023-09-19T03:34:13;15.60;99.90
26503;DHT22;14177;51.520;6.764;2023-09-19T03:36:40;15.60;99.90
26503;DHT22;14177;51.520;6.764;2023-09-19T03:39:08;15.50;99.90
26503;DHT22;14177;51.520;6.764;2023-09-19T03:41:35;15.50;99.90
26503;DHT22;14177;51.520;6.764;2023-09-19T03:44:04;15.50;99.90
26503;DHT22;14177;51.520;6.764;2023-09-19T03:46:31;15.50;99.90
26503;DHT22;14177;51.520;6.764;2023-09-19T03:48:59;15.50;99.90
26503;DHT22;14177;51.520;6.764;2023-09-19T03:51:27;15.50;99.90
26503;DHT22;14177;51.520;6.764;2023-09-19T03:53:54;15.40;99.90
26503;DHT22;14177;51.520;6.764;2023-09-19T03:56:21;15.40;99.90
26503;DHT22;14177;51.520;6.764;2023-09-19T03:58:48;15.40;99.90
26503;DHT22;14177;51.520;6.764;2023-09-19T04:01:16;15.40;99.90
26503;DHT22;14177;51.520;6.764;2023-09-19T04:03:44;15.40;99.90
26503;DHT22;14177;51.520;6.764;2023-09-19T04:06:15;15.40;99.90
26503;DHT22;14177;51.520;6.764;2023-09-19T04:08:43;15.40;99.90
26503;DHT22;14177;51.520;6.764;2023-09-19T04:11:11;15.40;99.90
26503;DHT22;14177;51.520;6.764;2023-09-19T04:13:38;15.40;99.90
26503;DHT22;14177;51.520;6.764;2023-09-19T04:16:06;15.40;99.90
26503;DHT22;14177;51.520;6.764;2023-09-19T04:18:37;15.40;99.90
26503;DHT22;14177;51.520;6.764;2023-09-19T04:21:05;15.40;99.90
26503;DHT22;14177;51.520;6.764;2023-09-19T04:23:33;15.40;99.90
26503;DHT22;14177;51.520;6.764;2023-09-19T04:26:00;15.30;99.90
26503;DHT22;14177;51.520;6.764;2023-09-19T04:28:27;15.30;99.90
26503;DHT22;14177;51.520;6.764;2023-09-19T04:30:54;15.30;99.90
26503;DHT22;14177;51.520;6.764;2023-09-19T04:33:22;15.30;99.90
26503;DHT22;14177;51.520;6.764;2023-09-19T04:35:50;15.30;99.90
26503;DHT22;14177;51.520;6.764;2023-09-19T04:38:18;15.30;99.90
26503;DHT22;14177;51.520;6.764;2023-09-19T04:40:46;15.30;99.90
26503;DHT22;14177;51.520;6.764;2023-09-19T04:43:14;15.30;99.90
26503;DHT22;14177;51.520;6.764;2023-09-19T04:45:42;15.30;99.90
26503;DHT22;14177;51.520;6.764;2023-09-19T04:48:09;15.30;99.90
26503;DHT22;14177;51.520;6.764;2023-09-19T04:50:37;15.30;99.90
26503;DHT22;14177;51.520;6.764;2023-09-19T04:53:05;15.30;99.90
26503;DHT22;14177;51.520;6.764;2023-09-19T04:55:34;15.30;99.90
26503;DHT22;14177;51.520;6.764;2023-09-19T04:58:01;15.30;99.90
26503;DHT22;14177;51.520;6.764;2023-09-19T05:00:29;15.30;99.90
26503;DHT22;14177;51.520;6.764;2023-09-19T05:02:57;15.30;99.90
26503;DHT22;14177;51.520;6.764;2023-09-19T05:05:25;15.30;99.90
26503;DHT22;14177;51.520;6.764;2023-09-19T05:07:53;15.30;99.90
26503;DHT22;14177;51.520;6.764;2023-09-19T05:10:21;15.30;99.90
26503;DHT22;14177;51.520;6.764;2023-09-19T05:12:48;15.30;99.90
26503;DHT22;14177;51.520;6.764;2023-09-19T05:15:19;15.30;99.90
26503;DHT22;14177;51.520;6.764;2023-09-19T05:17:50;15.30;99.90
26503;DHT22;14177;51.520;6.764;2023-09-19T05:20:23;15.30;99.90
26503;DHT22;14177;51.520;6.764;2023-09-19T05:23:01;15.40;99.90
26503;DHT22;14177;51.520;6.764;2023-09-19T05:25:31;15.30;99.90
26503;DHT22;14177;51.520;6.764;2023-09-19T05:28:00;15.30;99.90
26503;DHT22;14177;51.520;6.764;2023-09-19T05:30:31;15.40;99.90
26503;DHT22;14177;51.520;6.764;2023-09-19T05:32:58;15.40;99.90
26503;DHT22;14177;51.520;6.764;2023-09-19T05:35:25;15.40;99.90
26503;DHT22;14177;51.520;6.764;2023-09-19T05:37:55;15.40;99.90
26503;DHT22;14177;51.520;6.764;2023-09-19T05:40:22;15.40;99.90
26503;DHT22;14177;51.520;6.764;2023-09-19T05:42:50;15.50;99.90
26503;DHT22;14177;51.520;6.764;2023-09-19T05:45:18;15.50;99.90
26503;DHT22;14177;51.520;6.764;2023-09-19T05:47:52;15.50;99.90
26503;DHT22;14177;51.520;6.764;2023-09-19T05:50:22;15.50;99.90
26503;DHT22;14177;51.520;6.764;2023-09-19T05:52:53;15.50;99.90
26503;DHT22;14177;51.520;6.764;2023-09-19T05:55:23;15.60;99.90
26503;DHT22;14177;51.520;6.764;2023-09-19T05:57:52;15.60;99.90
26503;DHT22;14177;51.520;6.764;2023-09-19T06:00:23;15.60;99.90
26503;DHT22;14177;51.520;6.764;2023-09-19T06:02:56;15.60;99.90
26503;DHT22;14177;51.520;6.764;2023-09-19T06:05:25;15.70;99.90
26503;DHT22;14177;51.520;6.764;2023-09-19T06:07:53;15.70;99.90
26503;DHT22;14177;51.520;6.764;2023-09-19T06:10:21;15.70;99.90
26503;DHT22;14177;51.520;6.764;2023-09-19T06:12:49;15.70;99.90
26503;DHT22;14177;51.520;6.764;2023-09-19T06:15:16;15.80;99.90
26503;DHT22;14177;51.520;6.764;2023-09-19T06:17:49;15.80;99.90
26503;DHT22;14177;51.520;6.764;2023-09-19T06:20:17;15.80;99.90
26503;DHT22;14177;51.520;6.764;2023-09-19T06:22:45;15.80;99.90
26503;DHT22;14177;51.520;6.764;2023-09-19T06:25:14;15.90;99.90
26503;DHT22;14177;51.520;6.764;2023-09-19T06:27:48;15.90;99.90
26503;DHT22;14177;51.520;6.764;2023-09-19T06:30:19;15.90;99.90
26503;DHT22;14177;51.520;6.764;2023-09-19T06:32:46;15.90;99.90
26503;DHT22;14177;51.520;6.764;2023-09-19T06:35:14;15.90;99.90
26503;DHT22;14177;51.520;6.764;2023-09-19T06:37:43;15.90;99.90
26503;DHT22;14177;51.520;6.764;2023-09-19T06:40:14;15.90;99.90
26503;DHT22;14177;51.520;6.764;2023-09-19T06:42:51;16.00;99.90
26503;DHT22;14177;51.520;6.764;2023-09-19T06:45:20;16.00;99.90
26503;DHT22;14177;51.520;6.764;2023-09-19T06:47:50;16.00;99.90
26503;DHT22;14177;51.520;6.764;2023-09-19T06:50:21;16.00;99.90
26503;DHT22;14177;51.520;6.764;2023-09-19T06:52:51;16.00;99.90
26503;DHT22;14177;51.520;6.764;2023-09-19T06:55:21;16.00;99.90
26503;DHT22;14177;51.520;6.764;2023-09-19T06:57:52;16.00;99.90
26503;DHT22;14177;51.520;6.764;2023-09-19T07:00:21;16.10;99.90
26503;DHT22;14177;51.520;6.764;2023-09-19T07:03:05;16.10;99.90
26503;DHT22;14177;51.520;6.764;2023-09-19T07:05:39;16.10;99.90
26503;DHT22;14177;51.520;6.764;2023-09-19T07:08:08;16.10;99.90
26503;DHT22;14177;51.520;6.764;2023-09-19T07:10:37;16.10;99.90
26503;DHT22;14177;51.520;6.764;2023-09-19T07:13:08;16.30;99.90
26503;DHT22;14177;51.520;6.764;2023-09-19T07:15:39;16.30;99.90
26503;DHT22;14177;51.520;6.764;2023-09-19T07:18:08;16.30;99.90
26503;DHT22;14177;51.520;6.764;2023-09-19T07:20:38;16.40;99.90
26503;DHT22;14177;51.520;6.764;2023-09-19T07:23:05;16.50;99.90
26503;DHT22;14177;51.520;6.764;2023-09-19T07:25:33;16.50;99.90
26503;DHT22;14177;51.520;6.764;2023-09-19T07:28:02;16.50;99.90
26503;DHT22;14177;51.520;6.764;2023-09-19T07:30:29;16.60;99.90
26503;DHT22;14177;51.520;6.764;2023-09-19T07:32:57;16.70;99.90
26503;DHT22;14177;51.520;6.764;2023-09-19T07:35:24;16.60;99.90
26503;DHT22;14177;51.520;6.764;2023-09-19T07:37:52;16.70;99.90
26503;DHT22;14177;51.520;6.764;2023-09-19T07:40:19;16.70;99.90
26503;DHT22;14177;51.520;6.764;2023-09-19T07:42:51;16.90;99.90
26503;DHT22;14177;51.520;6.764;2023-09-19T07:45:18;16.80;99.90
26503;DHT22;14177;51.520;6.764;2023-09-19T07:47:50;16.80;99.90
26503;DHT22;14177;51.520;6.764;2023-09-19T07:50:18;16.70;99.90
26503;DHT22;14177;51.520;6.764;2023-09-19T07:52:47;16.80;99.90
26503;DHT22;14177;51.520;6.764;2023-09-19T07:55:15;16.80;99.90
26503;DHT22;14177;51.520;6.764;2023-09-19T07:57:46;16.70;99.90
26503;DHT22;14177;51.520;6.764;2023-09-19T08:00:14;16.80;99.90
26503;DHT22;14177;51.520;6.764;2023-09-19T08:02:42;16.70;99.90
26503;DHT22;14177;51.520;6.764;2023-09-19T08:05:11;16.90;99.90
26503;DHT22;14177;51.520;6.764;2023-09-19T08:07:43;17.00;99.90
26503;DHT22;14177;51.520;6.764;2023-09-19T08:10:15;17.00;99.90
26503;DHT22;14177;51.520;6.764;2023-09-19T08:12:44;16.90;99.90
26503;DHT22;14177;51.520;6.764;2023-09-19T08:15:19;17.10;99.90
26503;DHT22;14177;51.520;6.764;2023-09-19T08:17:48;17.20;99.90
26503;DHT22;14177;51.520;6.764;2023-09-19T08:20:16;17.30;99.90
26503;DHT22;14177;51.520;6.764;2023-09-19T08:22:47;17.30;99.90
26503;DHT22;14177;51.520;6.764;2023-09-19T08:25:16;17.40;99.90
26503;DHT22;14177;51.520;6.764;2023-09-19T08:27:48;17.60;99.90
26503;DHT22;14177;51.520;6.764;2023-09-19T08:30:18;17.60;99.90
26503;DHT22;14177;51.520;6.764;2023-09-19T08:32:51;17.60;99.90
26503;DHT22;14177;51.520;6.764;2023-09-19T08:35:17;17.70;99.90
26503;DHT22;14177;51.520;6.764;2023-09-19T08:37:46;17.60;99.90
26503;DHT22;14177;51.520;6.764;2023-09-19T08:40:13;17.60;99.90
26503;DHT22;14177;51.520;6.764;2023-09-19T08:42:54;17.70;99.90
26503;DHT22;14177;51.520;6.764;2023-09-19T08:45:24;17.80;99.90
26503;DHT22;14177;51.520;6.764;2023-09-19T08:53:51;18.00;99.90
26503;DHT22;14177;51.520;6.764;2023-09-19T08:56:33;18.30;99.90
26503;DHT22;14177;51.520;6.764;2023-09-19T08:59:06;18.50;99.90
26503;DHT22;14177;51.520;6.764;2023-09-19T09:01:38;18.60;99.90
26503;DHT22;14177;51.520;6.764;2023-09-19T09:04:09;18.60;99.90
26503;DHT22;14177;51.520;6.764;2023-09-19T09:06:41;18.70;99.90
26503;DHT22;14177;51.520;6.764;2023-09-19T09:09:10;18.80;99.90
26503;DHT22;14177;51.520;6.764;2023-09-19T09:11:38;18.70;99.90
26503;DHT22;14177;51.520;6.764;2023-09-19T09:14:07;18.50;99.90
26503;DHT22;14177;51.520;6.764;2023-09-19T09:16:35;18.80;99.90
26503;DHT22;14177;51.520;6.764;2023-09-19T09:19:02;19.00;99.90
26503;DHT22;14177;51.520;6.764;2023-09-19T09:21:29;19.00;99.90
26503;DHT22;14177;51.520;6.764;2023-09-19T09:23:56;19.20;99.90
26503;DHT22;14177;51.520;6.764;2023-09-19T09:29:06;19.10;99.90
26503;DHT22;14177;51.520;6.764;2023-09-19T09:31:33;19.00;99.90
26503;DHT22;14177;51.520;6.764;2023-09-19T09:34:00;18.90;99.90
26503;DHT22;14177;51.520;6.764;2023-09-19T09:36:40;19.20;99.90
26503;DHT22;14177;51.520;6.764;2023-09-19T09:39:08;18.90;99.90
26503;DHT22;14177;51.520;6.764;2023-09-19T09:41:45;19.00;99.90
26503;DHT22;14177;51.520;6.764;2023-09-19T09:44:14;19.20;99.90
26503;DHT22;14177;51.520;6.764;2023-09-19T09:46:43;19.30;99.90
26503;DHT22;14177;51.520;6.764;2023-09-19T09:49:25;19.00;99.90
26503;DHT22;14177;51.520;6.764;2023-09-19T09:55:19;19.80;99.90
26503;DHT22;14177;51.520;6.764;2023-09-19T09:58:02;19.60;99.90
26503;DHT22;14177;51.520;6.764;2023-09-19T10:00:54;19.70;99.90
26503;DHT22;14177;51.520;6.764;2023-09-19T10:03:32;19.40;99.90
26503;DHT22;14177;51.520;6.764;2023-09-19T10:06:09;19.40;99.90
26503;DHT22;14177;51.520;6.764;2023-09-19T10:08:59;19.50;99.90
26503;DHT22;14177;51.520;6.764;2023-09-19T10:11:44;19.60;99.90
26503;DHT22;14177;51.520;6.764;2023-09-19T10:14:15;19.80;99.90
26503;DHT22;14177;51.520;6.764;2023-09-19T10:16:47;20.20;99.90
26503;DHT22;14177;51.520;6.764;2023-09-19T10:19:42;20.20;99.90
26503;DHT22;14177;51.520;6.764;2023-09-19T10:22:14;20.20;99.90
26503;DHT22;14177;51.520;6.764;2023-09-19T10:24:43;19.80;99.90
26503;DHT22;14177;51.520;6.764;2023-09-19T10:27:29;19.80;99.90
26503;DHT22;14177;51.520;6.764;2023-09-19T10:30:06;19.80;99.90
26503;DHT22;14177;51.520;6.764;2023-09-19T10:32:35;19.70;99.90
26503;DHT22;14177;51.520;6.764;2023-09-19T10:35:07;19.60;99.90
26503;DHT22;14177;51.520;6.764;2023-09-19T10:37:35;19.70;99.90
26503;DHT22;14177;51.520;6.764;2023-09-19T10:40:06;19.60;99.90
26503;DHT22;14177;51.520;6.764;2023-09-19T10:42:40;19.80;99.90
26503;DHT22;14177;51.520;6.764;2023-09-19T10:45:11;20.10;99.90
26503;DHT22;14177;51.520;6.764;2023-09-19T10:47:41;20.00;99.90
26503;DHT22;14177;51.520;6.764;2023-09-19T10:50:09;20.20;99.90
26503;DHT22;14177;51.520;6.764;2023-09-19T10:52:49;20.60;99.90
26503;DHT22;14177;51.520;6.764;2023-09-19T10:55:27;20.30;99.90
26503;DHT22;14177;51.520;6.764;2023-09-19T10:57:56;20.30;99.90
26503;DHT22;14177;51.520;6.764;2023-09-19T11:00:56;20.50;99.90
26503;DHT22;14177;51.520;6.764;2023-09-19T11:03:44;20.70;99.90
26503;DHT22;14177;51.520;6.764;2023-09-19T11:06:15;20.20;99.90
26503;DHT22;14177;51.520;6.764;2023-09-19T11:08:56;20.40;99.90
26503;DHT22;14177;51.520;6.764;2023-09-19T11:14:37;21.20;99.90
26503;DHT22;14177;51.520;6.764;2023-09-19T11:30:49;21.00;99.90
26503;DHT22;14177;51.520;6.764;2023-09-19T11:33:19;20.70;99.90
26503;DHT22;14177;51.520;6.764;2023-09-19T11:36:09;20.70;99.90
26503;DHT22;14177;51.520;6.764;2023-09-19T11:41:37;20.60;99.90
26503;DHT22;14177;51.520;6.764;2023-09-19T11:46:53;20.50;99.90
26503;DHT22;14177;51.520;6.764;2023-09-19T11:49:28;20.80;99.90
26503;DHT22;14177;51.520;6.764;2023-09-19T11:52:00;21.00;99.90
26503;DHT22;14177;51.520;6.764;2023-09-19T11:54:28;21.10;99.90
26503;DHT22;14177;51.520;6.764;2023-09-19T11:56:59;21.30;99.90
26503;DHT22;14177;51.520;6.764;2023-09-19T11:59:28;21.20;99.90
26503;DHT22;14177;51.520;6.764;2023-09-19T12:02:04;21.10;99.90
26503;DHT22;14177;51.520;6.764;2023-09-19T12:04:43;21.30;99.90
26503;DHT22;14177;51.520;6.764;2023-09-19T12:07:14;21.20;99.90
26503;DHT22;14177;51.520;6.764;2023-09-19T12:09:48;21.50;99.90
26503;DHT22;14177;51.520;6.764;2023-09-19T12:12:23;21.90;99.90
26503;DHT22;14177;51.520;6.764;2023-09-19T12:14:57;21.90;99.90
26503;DHT22;14177;51.520;6.764;2023-09-19T12:17:41;22.00;99.90
26503;DHT22;14177;51.520;6.764;2023-09-19T12:20:10;22.00;99.90
26503;DHT22;14177;51.520;6.764;2023-09-19T12:22:44;21.90;99.90
26503;DHT22;14177;51.520;6.764;2023-09-19T12:25:13;22.00;99.90
26503;DHT22;14177;51.520;6.764;2023-09-19T12:27:44;22.20;99.90
26503;DHT22;14177;51.520;6.764;2023-09-19T12:30:15;21.70;99.90
26503;DHT22;14177;51.520;6.764;2023-09-19T12:32:47;21.80;99.90
26503;DHT22;14177;51.520;6.764;2023-09-19T12:35:31;21.70;99.70
26503;DHT22;14177;51.520;6.764;2023-09-19T12:38:02;21.80;99.60
26503;DHT22;14177;51.520;6.764;2023-09-19T12:40:31;22.00;99.50
26503;DHT22;14177;51.520;6.764;2023-09-19T12:43:01;22.30;99.90
26503;DHT22;14177;51.520;6.764;2023-09-19T12:45:32;22.10;99.10
26503;DHT22;14177;51.520;6.764;2023-09-19T12:48:21;22.30;98.60
26503;DHT22;14177;51.520;6.764;2023-09-19T12:51:08;21.90;99.30
26503;DHT22;14177;51.520;6.764;2023-09-19T12:53:40;21.90;98.90
26503;DHT22;14177;51.520;6.764;2023-09-19T12:56:14;22.10;99.40
26503;DHT22;14177;51.520;6.764;2023-09-19T12:58:52;22.00;99.00
26503;DHT22;14177;51.520;6.764;2023-09-19T13:01:23;21.80;99.60
26503;DHT22;14177;51.520;6.764;2023-09-19T13:04:15;21.80;99.70
26503;DHT22;14177;51.520;6.764;2023-09-19T13:06:47;21.80;99.80
26503;DHT22;14177;51.520;6.764;2023-09-19T13:09:17;21.70;99.70
26503;DHT22;14177;51.520;6.764;2023-09-19T13:11:49;21.90;99.90
26503;DHT22;14177;51.520;6.764;2023-09-19T13:14:25;22.10;99.60
26503;DHT22;14177;51.520;6.764;2023-09-19T13:17:07;21.90;99.80
26503;DHT22;14177;51.520;6.764;2023-09-19T13:19:48;21.90;99.40
26503;DHT22;14177;51.520;6.764;2023-09-19T13:22:35;21.90;99.80
26503;DHT22;14177;51.520;6.764;2023-09-19T13:25:18;22.40;99.30
26503;DHT22;14177;51.520;6.764;2023-09-19T13:30:18;21.90;99.90
26503;DHT22;14177;51.520;6.764;2023-09-19T13:32:46;21.70;99.60
26503;DHT22;14177;51.520;6.764;2023-09-19T13:35:15;21.60;99.90
26503;DHT22;14177;51.520;6.764;2023-09-19T13:37:43;21.40;99.90
26503;DHT22;14177;51.520;6.764;2023-09-19T13:40:13;21.60;99.90
26503;DHT22;14177;51.520;6.764;2023-09-19T13:42:41;21.60;99.90
26503;DHT22;14177;51.520;6.764;2023-09-19T13:45:09;21.50;99.90
26503;DHT22;14177;51.520;6.764;2023-09-19T13:47:39;21.70;99.90
26503;DHT22;14177;51.520;6.764;2023-09-19T13:50:07;21.80;99.90
26503;DHT22;14177;51.520;6.764;2023-09-19T13:52:36;21.50;99.90
26503;DHT22;14177;51.520;6.764;2023-09-19T13:55:03;21.30;99.90
26503;DHT22;14177;51.520;6.764;2023-09-19T13:57:32;21.50;99.90
26503;DHT22;14177;51.520;6.764;2023-09-19T14:00:00;21.40;99.90
26503;DHT22;14177;51.520;6.764;2023-09-19T14:02:37;20.90;99.90
26503;DHT22;14177;51.520;6.764;2023-09-19T14:05:06;21.00;99.90
26503;DHT22;14177;51.520;6.764;2023-09-19T14:07:33;20.90;99.90
26503;DHT22;14177;51.520;6.764;2023-09-19T14:10:00;20.70;99.90
26503;DHT22;14177;51.520;6.764;2023-09-19T14:12:27;20.80;99.90
26503;DHT22;14177;51.520;6.764;2023-09-19T14:14:54;20.70;99.90
26503;DHT22;14177;51.520;6.764;2023-09-19T14:17:23;20.60;99.90
26503;DHT22;14177;51.520;6.764;2023-09-19T14:19:50;20.50;99.90
26503;DHT22;14177;51.520;6.764;2023-09-19T14:22:18;20.50;99.90
26503;DHT22;14177;51.520;6.764;2023-09-19T14:24:45;20.50;99.90
26503;DHT22;14177;51.520;6.764;2023-09-19T14:27:12;20.40;99.90
26503;DHT22;14177;51.520;6.764;2023-09-19T14:29:39;20.60;99.90
26503;DHT22;14177;51.520;6.764;2023-09-19T14:32:06;20.50;99.90
26503;DHT22;14177;51.520;6.764;2023-09-19T14:34:33;20.70;99.90
26503;DHT22;14177;51.520;6.764;2023-09-19T14:37:00;20.80;99.90
26503;DHT22;14177;51.520;6.764;2023-09-19T14:39:27;20.60;99.90
26503;DHT22;14177;51.520;6.764;2023-09-19T14:41:55;20.60;99.90
26503;DHT22;14177;51.520;6.764;2023-09-19T14:44:22;20.60;99.90
26503;DHT22;14177;51.520;6.764;2023-09-19T14:46:49;20.60;99.90
26503;DHT22;14177;51.520;6.764;2023-09-19T14:49:16;20.50;99.90
26503;DHT22;14177;51.520;6.764;2023-09-19T14:51:43;20.40;99.90
26503;DHT22;14177;51.520;6.764;2023-09-19T14:54:11;20.40;99.90
26503;DHT22;14177;51.520;6.764;2023-09-19T14:56:38;20.40;99.90
26503;DHT22;14177;51.520;6.764;2023-09-19T14:59:09;20.40;99.90
26503;DHT22;14177;51.520;6.764;2023-09-19T15:01:37;20.30;99.90
26503;DHT22;14177;51.520;6.764;2023-09-19T15:04:05;20.30;99.90
26503;DHT22;14177;51.520;6.764;2023-09-19T15:06:33;20.30;99.90
26503;DHT22;14177;51.520;6.764;2023-09-19T15:09:00;20.20;99.90
26503;DHT22;14177;51.520;6.764;2023-09-19T15:11:27;20.20;99.90
26503;DHT22;14177;51.520;6.764;2023-09-19T15:13:55;20.20;99.90
26503;DHT22;14177;51.520;6.764;2023-09-19T15:16:22;20.10;99.90
26503;DHT22;14177;51.520;6.764;2023-09-19T15:18:49;20.20;99.90
26503;DHT22;14177;51.520;6.764;2023-09-19T15:21:16;20.20;99.90
26503;DHT22;14177;51.520;6.764;2023-09-19T15:23:44;20.30;99.90
26503;DHT22;14177;51.520;6.764;2023-09-19T15:26:13;20.30;99.90
26503;DHT22;14177;51.520;6.764;2023-09-19T15:28:44;20.30;99.90
26503;DHT22;14177;51.520;6.764;2023-09-19T15:31:12;20.30;99.90
26503;DHT22;14177;51.520;6.764;2023-09-19T15:33:40;20.30;99.90
26503;DHT22;14177;51.520;6.764;2023-09-19T15:36:09;20.40;99.90
26503;DHT22;14177;51.520;6.764;2023-09-19T15:39:03;20.30;99.90
26503;DHT22;14177;51.520;6.764;2023-09-19T15:41:35;20.30;99.90
26503;DHT22;14177;51.520;6.764;2023-09-19T15:44:17;20.30;99.90
26503;DHT22;14177;51.520;6.764;2023-09-19T15:46:46;20.30;99.90
26503;DHT22;14177;51.520;6.764;2023-09-19T15:49:14;20.30;99.90
26503;DHT22;14177;51.520;6.764;2023-09-19T15:51:41;20.30;99.90
26503;DHT22;14177;51.520;6.764;2023-09-19T15:54:14;20.30;99.90
26503;DHT22;14177;51.520;6.764;2023-09-19T15:56:42;20.30;99.90
26503;DHT22;14177;51.520;6.764;2023-09-19T15:59:10;20.30;99.90
26503;DHT22;14177;51.520;6.764;2023-09-19T16:01:43;20.30;99.90
26503;DHT22;14177;51.520;6.764;2023-09-19T16:04:11;20.30;99.90
26503;DHT22;14177;51.520;6.764;2023-09-19T16:06:40;20.20;99.90
26503;DHT22;14177;51.520;6.764;2023-09-19T16:09:08;20.20;99.90
26503;DHT22;14177;51.520;6.764;2023-09-19T16:11:37;20.20;99.90
26503;DHT22;14177;51.520;6.764;2023-09-19T16:14:05;20.10;99.90
26503;DHT22;14177;51.520;6.764;2023-09-19T16:16:37;20.10;99.90
26503;DHT22;14177;51.520;6.764;2023-09-19T16:19:05;20.10;99.90
26503;DHT22;14177;51.520;6.764;2023-09-19T16:21:37;20.10;99.90
26503;DHT22;14177;51.520;6.764;2023-09-19T16:24:07;20.10;99.90
26503;DHT22;14177;51.520;6.764;2023-09-19T16:26:36;20.10;99.90
26503;DHT22;14177;51.520;6.764;2023-09-19T16:29:04;20.10;99.90
26503;DHT22;14177;51.520;6.764;2023-09-19T16:31:31;20.10;99.90
26503;DHT22;14177;51.520;6.764;2023-09-19T16:34:00;20.10;99.90
26503;DHT22;14177;51.520;6.764;2023-09-19T16:36:27;20.00;99.90
26503;DHT22;14177;51.520;6.764;2023-09-19T16:38:55;20.10;99.90
26503;DHT22;14177;51.520;6.764;2023-09-19T16:41:22;20.10;99.90
26503;DHT22;14177;51.520;6.764;2023-09-19T16:43:50;20.10;99.90